sensor_id;sensor_type;location;lat;lon;timestamp;P1;durP1;ratioP1;P2;durP2;ratioP2
53062;SDS011;40529;52.172;10.548;2022-08-01T00:01:29;8.38;;;6.80;;
53062;SDS011;40529;52.172;10.548;2022-08-01T00:03:55;7.43;;;6.15;;
53062;SDS011;40529;52.172;10.548;2022-08-01T00:06:21;6.60;;;5.88;;
53062;SDS011;40529;52.172;10.548;2022-08-01T00:08:47;8.80;;;6.15;;
53062;SDS011;40529;52.172;10.548;2022-08-01T00:11:13;11.45;;;6.43;;
53062;SDS011;40529;52.172;10.548;2022-08-01T00:13:39;7.68;;;5.85;;
53062;SDS011;40529;52.172;10.548;2022-08-01T00:16:05;7.00;;;6.30;;
53062;SDS011;40529;52.172;10.548;2022-08-01T00:18:31;7.13;;;6.28;;
53062;SDS011;40529;52.172;10.548;2022-08-01T00:20:57;6.47;;;5.70;;
53062;SDS011;40529;52.172;10.548;2022-08-01T00:23:23;7.75;;;6.13;;
53062;SDS011;40529;52.172;10.548;2022-08-01T00:25:49;9.32;;;6.50;;
53062;SDS011;40529;52.172;10.548;2022-08-01T00:28:15;7.30;;;6.07;;
53062;SDS011;40529;52.172;10.548;2022-08-01T00:30:41;7.75;;;5.82;;
53062;SDS011;40529;52.172;10.548;2022-08-01T00:33:07;7.22;;;6.00;;
53062;SDS011;40529;52.172;10.548;2022-08-01T00:35:33;6.55;;;5.68;;
53062;SDS011;40529;52.172;10.548;2022-08-01T00:37:59;7.78;;;6.10;;
53062;SDS011;40529;52.172;10.548;2022-08-01T00:40:25;6.75;;;6.05;;
53062;SDS011;40529;52.172;10.548;2022-08-01T00:42:51;6.70;;;5.43;;
53062;SDS011;40529;52.172;10.548;2022-08-01T00:45:17;7.35;;;5.35;;
53062;SDS011;40529;52.172;10.548;2022-08-01T00:47:43;6.18;;;5.63;;
53062;SDS011;40529;52.172;10.548;2022-08-01T00:50:09;8.73;;;6.20;;
53062;SDS011;40529;52.172;10.548;2022-08-01T00:52:36;7.10;;;5.68;;
53062;SDS011;40529;52.172;10.548;2022-08-01T00:55:03;10.75;;;6.20;;
53062;SDS011;40529;52.172;10.548;2022-08-01T00:57:29;8.02;;;5.82;;
53062;SDS011;40529;52.172;10.548;2022-08-01T00:59:55;6.75;;;6.00;;
53062;SDS011;40529;52.172;10.548;2022-08-01T01:02:21;7.82;;;5.40;;
53062;SDS011;40529;52.172;10.548;2022-08-01T01:04:47;7.32;;;5.32;;
53062;SDS011;40529;52.172;10.548;2022-08-01T01:07:16;5.95;;;5.15;;
53062;SDS011;40529;52.172;10.548;2022-08-01T01:09:52;7.53;;;5.82;;
53062;SDS011;40529;52.172;10.548;2022-08-01T01:15:08;7.10;;;5.15;;
53062;SDS011;40529;52.172;10.548;2022-08-01T01:17:41;6.82;;;4.88;;
53062;SDS011;40529;52.172;10.548;2022-08-01T01:20:08;6.97;;;5.57;;
53062;SDS011;40529;52.172;10.548;2022-08-01T01:30:12;8.20;;;4.17;;
53062;SDS011;40529;52.172;10.548;2022-08-01T01:32:39;8.07;;;5.05;;
53062;SDS011;40529;52.172;10.548;2022-08-01T01:35:06;9.82;;;5.88;;
53062;SDS011;40529;52.172;10.548;2022-08-01T01:37:33;9.25;;;5.68;;
53062;SDS011;40529;52.172;10.548;2022-08-01T01:39:59;9.50;;;5.68;;
53062;SDS011;40529;52.172;10.548;2022-08-01T01:42:27;9.23;;;6.20;;
53062;SDS011;40529;52.172;10.548;2022-08-01T01:44:54;8.90;;;6.40;;
53062;SDS011;40529;52.172;10.548;2022-08-01T01:47:20;9.18;;;6.63;;
53062;SDS011;40529;52.172;10.548;2022-08-01T01:49:47;9.20;;;6.35;;
53062;SDS011;40529;52.172;10.548;2022-08-01T01:52:15;12.35;;;6.45;;
53062;SDS011;40529;52.172;10.548;2022-08-01T01:54:42;10.20;;;6.90;;
53062;SDS011;40529;52.172;10.548;2022-08-01T01:57:10;13.02;;;7.03;;
53062;SDS011;40529;52.172;10.548;2022-08-01T01:59:37;11.25;;;6.93;;
53062;SDS011;40529;52.172;10.548;2022-08-01T02:02:04;10.05;;;6.88;;
53062;SDS011;40529;52.172;10.548;2022-08-01T02:04:31;11.13;;;6.53;;
53062;SDS011;40529;52.172;10.548;2022-08-01T02:06:57;8.43;;;6.28;;
53062;SDS011;40529;52.172;10.548;2022-08-01T02:09:24;8.48;;;7.22;;
53062;SDS011;40529;52.172;10.548;2022-08-01T02:11:52;9.98;;;7.47;;
53062;SDS011;40529;52.172;10.548;2022-08-01T02:14:19;11.93;;;7.13;;
53062;SDS011;40529;52.172;10.548;2022-08-01T02:16:48;11.27;;;6.78;;
53062;SDS011;40529;52.172;10.548;2022-08-01T02:19:15;8.87;;;5.93;;
53062;SDS011;40529;52.172;10.548;2022-08-01T02:21:46;10.48;;;6.20;;
53062;SDS011;40529;52.172;10.548;2022-08-01T02:24:14;8.52;;;5.93;;
53062;SDS011;40529;52.172;10.548;2022-08-01T02:26:44;8.37;;;5.83;;
53062;SDS011;40529;52.172;10.548;2022-08-01T02:29:13;8.73;;;6.32;;
53062;SDS011;40529;52.172;10.548;2022-08-01T02:31:41;7.97;;;5.90;;
53062;SDS011;40529;52.172;10.548;2022-08-01T02:34:10;7.35;;;4.63;;
53062;SDS011;40529;52.172;10.548;2022-08-01T02:36:38;7.33;;;4.90;;
53062;SDS011;40529;52.172;10.548;2022-08-01T02:39:07;6.90;;;4.40;;
53062;SDS011;40529;52.172;10.548;2022-08-01T02:41:36;5.47;;;4.27;;
53062;SDS011;40529;52.172;10.548;2022-08-01T02:44:04;7.68;;;4.85;;
53062;SDS011;40529;52.172;10.548;2022-08-01T02:46:36;8.00;;;5.47;;
53062;SDS011;40529;52.172;10.548;2022-08-01T02:49:02;6.75;;;4.43;;
53062;SDS011;40529;52.172;10.548;2022-08-01T02:51:29;7.00;;;4.18;;
53062;SDS011;40529;52.172;10.548;2022-08-01T02:53:56;4.25;;;3.35;;
53062;SDS011;40529;52.172;10.548;2022-08-01T02:56:23;4.30;;;3.47;;
53062;SDS011;40529;52.172;10.548;2022-08-01T02:58:49;4.50;;;3.10;;
53062;SDS011;40529;52.172;10.548;2022-08-01T03:01:16;6.88;;;3.38;;
53062;SDS011;40529;52.172;10.548;2022-08-01T03:03:43;4.45;;;3.75;;
53062;SDS011;40529;52.172;10.548;2022-08-01T03:06:09;4.18;;;3.00;;
53062;SDS011;40529;52.172;10.548;2022-08-01T03:08:35;4.43;;;3.30;;
53062;SDS011;40529;52.172;10.548;2022-08-01T03:11:03;5.63;;;3.10;;
53062;SDS011;40529;52.172;10.548;2022-08-01T03:13:30;4.57;;;3.00;;
53062;SDS011;40529;52.172;10.548;2022-08-01T03:15:57;4.68;;;3.00;;
53062;SDS011;40529;52.172;10.548;2022-08-01T03:18:24;4.10;;;3.03;;
53062;SDS011;40529;52.172;10.548;2022-08-01T03:20:52;3.47;;;3.15;;
53062;SDS011;40529;52.172;10.548;2022-08-01T03:23:19;4.45;;;2.97;;
53062;SDS011;40529;52.172;10.548;2022-08-01T03:25:46;5.25;;;3.40;;
53062;SDS011;40529;52.172;10.548;2022-08-01T03:28:14;4.97;;;3.00;;
53062;SDS011;40529;52.172;10.548;2022-08-01T03:30:41;4.32;;;3.20;;
53062;SDS011;40529;52.172;10.548;2022-08-01T03:33:08;4.88;;;3.25;;
53062;SDS011;40529;52.172;10.548;2022-08-01T03:35:39;7.93;;;3.50;;
53062;SDS011;40529;52.172;10.548;2022-08-01T03:38:08;4.35;;;3.42;;
53062;SDS011;40529;52.172;10.548;2022-08-01T03:43:05;5.93;;;3.65;;
53062;SDS011;40529;52.172;10.548;2022-08-01T03:45:39;5.45;;;3.40;;
53062;SDS011;40529;52.172;10.548;2022-08-01T03:48:10;5.88;;;3.22;;
53062;SDS011;40529;52.172;10.548;2022-08-01T03:50:39;4.07;;;2.97;;
53062;SDS011;40529;52.172;10.548;2022-08-01T03:53:07;2.90;;;2.70;;
53062;SDS011;40529;52.172;10.548;2022-08-01T03:55:35;3.42;;;2.63;;
53062;SDS011;40529;52.172;10.548;2022-08-01T03:58:02;3.22;;;2.92;;
53062;SDS011;40529;52.172;10.548;2022-08-01T04:00:29;4.30;;;3.50;;
53062;SDS011;40529;52.172;10.548;2022-08-01T04:02:55;5.30;;;3.63;;
53062;SDS011;40529;52.172;10.548;2022-08-01T04:05:22;4.15;;;3.72;;
53062;SDS011;40529;52.172;10.548;2022-08-01T04:07:49;4.72;;;4.25;;
53062;SDS011;40529;52.172;10.548;2022-08-01T04:10:20;4.93;;;4.15;;
53062;SDS011;40529;52.172;10.548;2022-08-01T04:12:46;5.47;;;4.13;;
53062;SDS011;40529;52.172;10.548;2022-08-01T04:15:12;5.55;;;5.05;;
53062;SDS011;40529;52.172;10.548;2022-08-01T04:17:39;5.72;;;5.15;;
53062;SDS011;40529;52.172;10.548;2022-08-01T04:20:05;7.60;;;5.20;;
53062;SDS011;40529;52.172;10.548;2022-08-01T04:22:31;5.22;;;4.68;;
53062;SDS011;40529;52.172;10.548;2022-08-01T04:24:57;6.10;;;5.25;;
53062;SDS011;40529;52.172;10.548;2022-08-01T04:27:26;7.97;;;5.35;;
53062;SDS011;40529;52.172;10.548;2022-08-01T04:29:54;9.27;;;5.65;;
53062;SDS011;40529;52.172;10.548;2022-08-01T04:32:22;12.43;;;6.28;;
53062;SDS011;40529;52.172;10.548;2022-08-01T04:34:49;8.75;;;6.05;;
53062;SDS011;40529;52.172;10.548;2022-08-01T04:37:16;8.27;;;6.68;;
53062;SDS011;40529;52.172;10.548;2022-08-01T04:39:42;8.75;;;6.05;;
53062;SDS011;40529;52.172;10.548;2022-08-01T04:42:09;8.68;;;6.13;;
53062;SDS011;40529;52.172;10.548;2022-08-01T04:44:36;7.57;;;6.28;;
53062;SDS011;40529;52.172;10.548;2022-08-01T04:47:03;8.07;;;6.60;;
53062;SDS011;40529;52.172;10.548;2022-08-01T04:49:36;7.03;;;5.90;;
53062;SDS011;40529;52.172;10.548;2022-08-01T04:52:03;5.50;;;4.97;;
53062;SDS011;40529;52.172;10.548;2022-08-01T04:54:31;5.78;;;4.78;;
53062;SDS011;40529;52.172;10.548;2022-08-01T04:56:58;6.22;;;5.07;;
53062;SDS011;40529;52.172;10.548;2022-08-01T04:59:34;6.35;;;5.53;;
53062;SDS011;40529;52.172;10.548;2022-08-01T05:02:05;6.93;;;5.15;;
53062;SDS011;40529;52.172;10.548;2022-08-01T05:04:31;6.43;;;5.55;;
53062;SDS011;40529;52.172;10.548;2022-08-01T05:06:57;7.43;;;5.72;;
53062;SDS011;40529;52.172;10.548;2022-08-01T05:09:23;8.52;;;6.00;;
53062;SDS011;40529;52.172;10.548;2022-08-01T05:11:49;7.57;;;5.65;;
53062;SDS011;40529;52.172;10.548;2022-08-01T05:14:15;6.57;;;5.43;;
53062;SDS011;40529;52.172;10.548;2022-08-01T05:16:41;6.20;;;5.13;;
53062;SDS011;40529;52.172;10.548;2022-08-01T05:19:07;6.15;;;5.00;;
53062;SDS011;40529;52.172;10.548;2022-08-01T05:21:33;6.45;;;4.82;;
53062;SDS011;40529;52.172;10.548;2022-08-01T05:23:59;6.50;;;5.15;;
53062;SDS011;40529;52.172;10.548;2022-08-01T05:26:25;6.10;;;4.72;;
53062;SDS011;40529;52.172;10.548;2022-08-01T05:28:51;5.32;;;4.57;;
53062;SDS011;40529;52.172;10.548;2022-08-01T05:31:17;5.47;;;4.95;;
53062;SDS011;40529;52.172;10.548;2022-08-01T05:33:43;4.70;;;4.22;;
53062;SDS011;40529;52.172;10.548;2022-08-01T05:36:09;4.97;;;4.18;;
53062;SDS011;40529;52.172;10.548;2022-08-01T05:38:35;4.95;;;3.58;;
53062;SDS011;40529;52.172;10.548;2022-08-01T05:41:01;4.40;;;3.90;;
53062;SDS011;40529;52.172;10.548;2022-08-01T05:43:27;4.20;;;3.80;;
53062;SDS011;40529;52.172;10.548;2022-08-01T05:45:53;3.95;;;3.55;;
53062;SDS011;40529;52.172;10.548;2022-08-01T05:48:19;3.65;;;3.15;;
53062;SDS011;40529;52.172;10.548;2022-08-01T05:50:45;4.63;;;4.00;;
53062;SDS011;40529;52.172;10.548;2022-08-01T05:53:12;4.88;;;4.03;;
53062;SDS011;40529;52.172;10.548;2022-08-01T05:55:38;5.68;;;5.07;;
53062;SDS011;40529;52.172;10.548;2022-08-01T05:58:04;6.95;;;5.75;;
53062;SDS011;40529;52.172;10.548;2022-08-01T06:00:30;9.60;;;7.03;;
53062;SDS011;40529;52.172;10.548;2022-08-01T06:02:56;9.27;;;7.57;;
53062;SDS011;40529;52.172;10.548;2022-08-01T06:05:22;9.48;;;6.93;;
53062;SDS011;40529;52.172;10.548;2022-08-01T06:07:48;10.13;;;7.32;;
53062;SDS011;40529;52.172;10.548;2022-08-01T06:10:14;10.25;;;7.40;;
53062;SDS011;40529;52.172;10.548;2022-08-01T06:12:40;11.48;;;7.38;;
53062;SDS011;40529;52.172;10.548;2022-08-01T06:15:07;10.52;;;7.53;;
53062;SDS011;40529;52.172;10.548;2022-08-01T06:17:33;10.23;;;7.18;;
53062;SDS011;40529;52.172;10.548;2022-08-01T06:19:59;8.68;;;5.78;;
53062;SDS011;40529;52.172;10.548;2022-08-01T06:22:25;10.48;;;6.20;;
53062;SDS011;40529;52.172;10.548;2022-08-01T06:24:51;9.63;;;6.60;;
53062;SDS011;40529;52.172;10.548;2022-08-01T06:27:17;11.48;;;6.40;;
53062;SDS011;40529;52.172;10.548;2022-08-01T06:29:43;9.23;;;5.57;;
53062;SDS011;40529;52.172;10.548;2022-08-01T06:32:09;8.45;;;5.57;;
53062;SDS011;40529;52.172;10.548;2022-08-01T06:34:35;7.68;;;5.47;;
53062;SDS011;40529;52.172;10.548;2022-08-01T06:37:01;5.72;;;4.63;;
53062;SDS011;40529;52.172;10.548;2022-08-01T06:39:27;5.28;;;4.32;;
53062;SDS011;40529;52.172;10.548;2022-08-01T06:41:53;5.75;;;4.53;;
53062;SDS011;40529;52.172;10.548;2022-08-01T06:44:19;5.30;;;4.07;;
53062;SDS011;40529;52.172;10.548;2022-08-01T06:46:45;6.05;;;4.60;;
53062;SDS011;40529;52.172;10.548;2022-08-01T06:49:11;4.00;;;3.50;;
53062;SDS011;40529;52.172;10.548;2022-08-01T06:51:37;5.55;;;3.83;;
53062;SDS011;40529;52.172;10.548;2022-08-01T06:54:03;4.15;;;3.75;;
53062;SDS011;40529;52.172;10.548;2022-08-01T06:56:29;5.97;;;3.78;;
53062;SDS011;40529;52.172;10.548;2022-08-01T06:58:55;5.18;;;4.00;;
53062;SDS011;40529;52.172;10.548;2022-08-01T07:01:26;5.03;;;3.90;;
53062;SDS011;40529;52.172;10.548;2022-08-01T07:03:52;5.03;;;3.78;;
53062;SDS011;40529;52.172;10.548;2022-08-01T07:06:18;3.80;;;3.45;;
53062;SDS011;40529;52.172;10.548;2022-08-01T07:08:44;5.30;;;3.85;;
53062;SDS011;40529;52.172;10.548;2022-08-01T07:11:10;4.35;;;3.40;;
53062;SDS011;40529;52.172;10.548;2022-08-01T07:13:36;4.00;;;3.47;;
53062;SDS011;40529;52.172;10.548;2022-08-01T07:16:02;4.75;;;2.72;;
53062;SDS011;40529;52.172;10.548;2022-08-01T07:18:28;2.65;;;2.42;;
53062;SDS011;40529;52.172;10.548;2022-08-01T07:20:54;5.13;;;2.92;;
53062;SDS011;40529;52.172;10.548;2022-08-01T07:23:20;4.32;;;2.80;;
53062;SDS011;40529;52.172;10.548;2022-08-01T07:25:46;4.32;;;3.05;;
53062;SDS011;40529;52.172;10.548;2022-08-01T07:28:14;4.95;;;2.90;;
53062;SDS011;40529;52.172;10.548;2022-08-01T07:30:40;6.72;;;3.00;;
53062;SDS011;40529;52.172;10.548;2022-08-01T07:33:07;7.18;;;2.75;;
53062;SDS011;40529;52.172;10.548;2022-08-01T07:35:33;2.70;;;2.42;;
53062;SDS011;40529;52.172;10.548;2022-08-01T07:40:28;3.30;;;3.00;;
53062;SDS011;40529;52.172;10.548;2022-08-01T07:42:54;3.22;;;2.67;;
53062;SDS011;40529;52.172;10.548;2022-08-01T07:45:20;4.32;;;2.90;;
53062;SDS011;40529;52.172;10.548;2022-08-01T07:47:47;3.03;;;2.20;;
53062;SDS011;40529;52.172;10.548;2022-08-01T07:50:14;2.33;;;2.13;;
53062;SDS011;40529;52.172;10.548;2022-08-01T07:52:40;2.90;;;2.28;;
53062;SDS011;40529;52.172;10.548;2022-08-01T07:55:06;2.42;;;2.22;;
53062;SDS011;40529;52.172;10.548;2022-08-01T07:57:33;2.40;;;2.20;;
53062;SDS011;40529;52.172;10.548;2022-08-01T07:59:59;6.65;;;2.42;;
53062;SDS011;40529;52.172;10.548;2022-08-01T08:02:25;2.95;;;1.98;;
53062;SDS011;40529;52.172;10.548;2022-08-01T08:04:50;4.22;;;2.30;;
53062;SDS011;40529;52.172;10.548;2022-08-01T08:07:16;3.35;;;2.20;;
53062;SDS011;40529;52.172;10.548;2022-08-01T08:09:42;2.28;;;1.77;;
53062;SDS011;40529;52.172;10.548;2022-08-01T08:12:08;2.08;;;1.88;;
53062;SDS011;40529;52.172;10.548;2022-08-01T08:14:34;2.40;;;2.03;;
53062;SDS011;40529;52.172;10.548;2022-08-01T08:17:00;2.20;;;2.00;;
53062;SDS011;40529;52.172;10.548;2022-08-01T08:19:26;2.30;;;2.00;;
53062;SDS011;40529;52.172;10.548;2022-08-01T08:21:52;2.15;;;1.70;;
53062;SDS011;40529;52.172;10.548;2022-08-01T08:24:19;3.83;;;1.83;;
53062;SDS011;40529;52.172;10.548;2022-08-01T08:26:45;3.55;;;2.05;;
53062;SDS011;40529;52.172;10.548;2022-08-01T08:29:11;2.38;;;2.17;;
53062;SDS011;40529;52.172;10.548;2022-08-01T08:31:37;2.55;;;1.85;;
53062;SDS011;40529;52.172;10.548;2022-08-01T08:34:03;2.22;;;1.90;;
53062;SDS011;40529;52.172;10.548;2022-08-01T08:36:29;2.28;;;1.45;;
53062;SDS011;40529;52.172;10.548;2022-08-01T08:38:55;1.77;;;1.67;;
53062;SDS011;40529;52.172;10.548;2022-08-01T08:41:22;2.05;;;1.77;;
53062;SDS011;40529;52.172;10.548;2022-08-01T08:43:48;3.67;;;1.92;;
53062;SDS011;40529;52.172;10.548;2022-08-01T08:46:14;1.75;;;1.65;;
53062;SDS011;40529;52.172;10.548;2022-08-01T08:48:40;2.10;;;1.70;;
53062;SDS011;40529;52.172;10.548;2022-08-01T08:51:07;3.40;;;1.92;;
53062;SDS011;40529;52.172;10.548;2022-08-01T08:53:35;2.42;;;1.63;;
53062;SDS011;40529;52.172;10.548;2022-08-01T08:56:02;3.38;;;1.60;;
53062;SDS011;40529;52.172;10.548;2022-08-01T08:58:29;3.10;;;1.55;;
53062;SDS011;40529;52.172;10.548;2022-08-01T09:00:59;2.00;;;1.80;;
53062;SDS011;40529;52.172;10.548;2022-08-01T09:03:25;2.90;;;1.95;;
53062;SDS011;40529;52.172;10.548;2022-08-01T09:05:51;1.88;;;1.60;;
53062;SDS011;40529;52.172;10.548;2022-08-01T09:08:17;1.60;;;1.50;;
53062;SDS011;40529;52.172;10.548;2022-08-01T09:10:43;2.35;;;1.42;;
53062;SDS011;40529;52.172;10.548;2022-08-01T09:13:11;2.00;;;1.50;;
53062;SDS011;40529;52.172;10.548;2022-08-01T09:15:41;2.45;;;1.60;;
53062;SDS011;40529;52.172;10.548;2022-08-01T09:18:08;2.95;;;1.60;;
53062;SDS011;40529;52.172;10.548;2022-08-01T09:20:34;3.30;;;1.75;;
53062;SDS011;40529;52.172;10.548;2022-08-01T09:23:00;1.52;;;1.42;;
53062;SDS011;40529;52.172;10.548;2022-08-01T09:25:26;2.63;;;2.00;;
53062;SDS011;40529;52.172;10.548;2022-08-01T09:28:05;2.88;;;2.22;;
53062;SDS011;40529;52.172;10.548;2022-08-01T09:30:37;2.90;;;2.50;;
53062;SDS011;40529;52.172;10.548;2022-08-01T09:33:05;3.25;;;2.58;;
53062;SDS011;40529;52.172;10.548;2022-08-01T09:35:32;3.08;;;2.65;;
53062;SDS011;40529;52.172;10.548;2022-08-01T09:38:13;3.13;;;2.78;;
53062;SDS011;40529;52.172;10.548;2022-08-01T09:40:49;3.28;;;2.83;;
53062;SDS011;40529;52.172;10.548;2022-08-01T09:43:16;4.43;;;3.60;;
53062;SDS011;40529;52.172;10.548;2022-08-01T09:45:42;4.35;;;3.83;;
53062;SDS011;40529;52.172;10.548;2022-08-01T09:48:09;5.22;;;4.78;;
53062;SDS011;40529;52.172;10.548;2022-08-01T09:50:53;4.60;;;4.20;;
53062;SDS011;40529;52.172;10.548;2022-08-01T09:53:19;4.13;;;3.75;;
53062;SDS011;40529;52.172;10.548;2022-08-01T09:55:45;4.20;;;3.90;;
53062;SDS011;40529;52.172;10.548;2022-08-01T09:58:11;3.78;;;3.47;;
53062;SDS011;40529;52.172;10.548;2022-08-01T10:00:38;3.10;;;2.80;;
53062;SDS011;40529;52.172;10.548;2022-08-01T10:03:21;2.70;;;2.50;;
53062;SDS011;40529;52.172;10.548;2022-08-01T10:05:47;2.75;;;2.55;;
53062;SDS011;40529;52.172;10.548;2022-08-01T10:08:13;2.92;;;2.38;;
53062;SDS011;40529;52.172;10.548;2022-08-01T10:10:39;2.15;;;1.88;;
53062;SDS011;40529;52.172;10.548;2022-08-01T10:13:06;1.35;;;1.23;;
53062;SDS011;40529;52.172;10.548;2022-08-01T10:15:33;1.90;;;1.20;;
53062;SDS011;40529;52.172;10.548;2022-08-01T10:18:01;4.60;;;1.65;;
53062;SDS011;40529;52.172;10.548;2022-08-01T10:20:28;1.75;;;1.30;;
53062;SDS011;40529;52.172;10.548;2022-08-01T10:22:54;1.40;;;1.30;;
53062;SDS011;40529;52.172;10.548;2022-08-01T10:25:21;1.50;;;1.40;;
53062;SDS011;40529;52.172;10.548;2022-08-01T10:27:52;2.00;;;1.65;;
53062;SDS011;40529;52.172;10.548;2022-08-01T10:30:22;2.42;;;1.80;;
53062;SDS011;40529;52.172;10.548;2022-08-01T10:32:48;1.40;;;1.30;;
53062;SDS011;40529;52.172;10.548;2022-08-01T10:35:14;1.40;;;1.30;;
53062;SDS011;40529;52.172;10.548;2022-08-01T10:37:43;1.20;;;1.10;;
53062;SDS011;40529;52.172;10.548;2022-08-01T10:40:11;1.67;;;1.30;;
53062;SDS011;40529;52.172;10.548;2022-08-01T10:42:39;1.50;;;1.40;;
53062;SDS011;40529;52.172;10.548;2022-08-01T10:45:05;1.90;;;1.40;;
53062;SDS011;40529;52.172;10.548;2022-08-01T10:47:38;1.70;;;1.60;;
53062;SDS011;40529;52.172;10.548;2022-08-01T10:53:03;3.88;;;2.10;;
53062;SDS011;40529;52.172;10.548;2022-08-01T10:55:29;2.40;;;1.98;;
53062;SDS011;40529;52.172;10.548;2022-08-01T10:58:10;2.40;;;1.75;;
53062;SDS011;40529;52.172;10.548;2022-08-01T11:00:36;1.90;;;1.80;;
53062;SDS011;40529;52.172;10.548;2022-08-01T11:03:03;2.60;;;2.40;;
53062;SDS011;40529;52.172;10.548;2022-08-01T11:05:33;2.30;;;2.03;;
53062;SDS011;40529;52.172;10.548;2022-08-01T11:08:03;2.60;;;2.40;;
53062;SDS011;40529;52.172;10.548;2022-08-01T11:10:36;2.47;;;2.10;;
53062;SDS011;40529;52.172;10.548;2022-08-01T11:13:03;3.08;;;1.90;;
53062;SDS011;40529;52.172;10.548;2022-08-01T11:15:32;1.95;;;1.80;;
53062;SDS011;40529;52.172;10.548;2022-08-01T11:17:59;2.13;;;1.92;;
53062;SDS011;40529;52.172;10.548;2022-08-01T11:20:30;3.25;;;2.60;;
53062;SDS011;40529;52.172;10.548;2022-08-01T11:30:48;2.33;;;1.77;;
53062;SDS011;40529;52.172;10.548;2022-08-01T11:33:15;1.95;;;1.40;;
53062;SDS011;40529;52.172;10.548;2022-08-01T11:38:27;1.85;;;1.42;;
53062;SDS011;40529;52.172;10.548;2022-08-01T11:43:54;1.95;;;1.70;;
53062;SDS011;40529;52.172;10.548;2022-08-01T11:46:44;2.17;;;1.27;;
53062;SDS011;40529;52.172;10.548;2022-08-01T11:51:57;2.22;;;1.55;;
53062;SDS011;40529;52.172;10.548;2022-08-01T11:54:33;3.03;;;1.80;;
53062;SDS011;40529;52.172;10.548;2022-08-01T11:57:00;1.70;;;1.50;;
53062;SDS011;40529;52.172;10.548;2022-08-01T11:59:27;2.13;;;1.33;;
53062;SDS011;40529;52.172;10.548;2022-08-01T12:01:53;2.22;;;1.40;;
53062;SDS011;40529;52.172;10.548;2022-08-01T12:04:19;3.78;;;1.67;;
53062;SDS011;40529;52.172;10.548;2022-08-01T12:06:45;1.75;;;1.50;;
53062;SDS011;40529;52.172;10.548;2022-08-01T12:09:15;3.17;;;1.77;;
53062;SDS011;40529;52.172;10.548;2022-08-01T12:11:41;2.47;;;1.60;;
53062;SDS011;40529;52.172;10.548;2022-08-01T12:14:07;3.22;;;1.50;;
53062;SDS011;40529;52.172;10.548;2022-08-01T12:16:33;3.50;;;1.52;;
53062;SDS011;40529;52.172;10.548;2022-08-01T12:18:59;1.77;;;1.27;;
53062;SDS011;40529;52.172;10.548;2022-08-01T12:21:26;1.85;;;1.27;;
53062;SDS011;40529;52.172;10.548;2022-08-01T12:24:01;2.58;;;1.40;;
53062;SDS011;40529;52.172;10.548;2022-08-01T12:26:49;2.80;;;1.30;;
53062;SDS011;40529;52.172;10.548;2022-08-01T12:29:30;4.88;;;1.60;;
53062;SDS011;40529;52.172;10.548;2022-08-01T12:31:56;1.83;;;1.25;;
53062;SDS011;40529;52.172;10.548;2022-08-01T12:34:26;2.15;;;1.17;;
53062;SDS011;40529;52.172;10.548;2022-08-01T12:36:55;2.22;;;1.10;;
53062;SDS011;40529;52.172;10.548;2022-08-01T12:39:22;2.30;;;1.23;;
53062;SDS011;40529;52.172;10.548;2022-08-01T12:41:48;2.00;;;1.33;;
53062;SDS011;40529;52.172;10.548;2022-08-01T12:44:15;2.38;;;1.23;;
53062;SDS011;40529;52.172;10.548;2022-08-01T12:46:41;2.22;;;1.30;;
53062;SDS011;40529;52.172;10.548;2022-08-01T12:49:07;3.95;;;1.30;;
53062;SDS011;40529;52.172;10.548;2022-08-01T12:51:33;1.83;;;1.10;;
53062;SDS011;40529;52.172;10.548;2022-08-01T12:53:59;3.92;;;1.27;;
53062;SDS011;40529;52.172;10.548;2022-08-01T12:56:32;2.10;;;1.10;;
53062;SDS011;40529;52.172;10.548;2022-08-01T12:58:58;4.10;;;1.23;;
53062;SDS011;40529;52.172;10.548;2022-08-01T13:01:25;6.47;;;1.70;;
53062;SDS011;40529;52.172;10.548;2022-08-01T13:04:01;3.22;;;1.48;;
53062;SDS011;40529;52.172;10.548;2022-08-01T13:06:29;4.38;;;1.65;;
53062;SDS011;40529;52.172;10.548;2022-08-01T13:09:04;2.58;;;1.20;;
53062;SDS011;40529;52.172;10.548;2022-08-01T13:11:30;3.45;;;1.30;;
53062;SDS011;40529;52.172;10.548;2022-08-01T13:13:56;7.38;;;1.10;;
53062;SDS011;40529;52.172;10.548;2022-08-01T13:16:23;4.43;;;1.55;;
53062;SDS011;40529;52.172;10.548;2022-08-01T13:18:50;2.72;;;1.10;;
53062;SDS011;40529;52.172;10.548;2022-08-01T13:21:23;4.95;;;1.35;;
53062;SDS011;40529;52.172;10.548;2022-08-01T13:24:06;2.90;;;1.10;;
53062;SDS011;40529;52.172;10.548;2022-08-01T13:29:10;3.08;;;1.20;;
53062;SDS011;40529;52.172;10.548;2022-08-01T13:31:37;3.78;;;1.30;;
53062;SDS011;40529;52.172;10.548;2022-08-01T13:34:03;3.63;;;1.23;;
53062;SDS011;40529;52.172;10.548;2022-08-01T13:36:29;3.92;;;1.42;;
53062;SDS011;40529;52.172;10.548;2022-08-01T13:38:56;2.67;;;1.40;;
53062;SDS011;40529;52.172;10.548;2022-08-01T13:41:41;4.32;;;1.10;;
53062;SDS011;40529;52.172;10.548;2022-08-01T13:44:08;3.22;;;1.13;;
53062;SDS011;40529;52.172;10.548;2022-08-01T13:46:35;2.10;;;0.95;;
53062;SDS011;40529;52.172;10.548;2022-08-01T13:49:02;4.45;;;1.23;;
53062;SDS011;40529;52.172;10.548;2022-08-01T13:51:28;5.50;;;1.30;;
53062;SDS011;40529;52.172;10.548;2022-08-01T13:53:54;2.10;;;1.30;;
53062;SDS011;40529;52.172;10.548;2022-08-01T13:56:20;2.83;;;1.27;;
53062;SDS011;40529;52.172;10.548;2022-08-01T13:58:46;5.40;;;1.20;;
53062;SDS011;40529;52.172;10.548;2022-08-01T14:01:12;2.25;;;1.30;;
53062;SDS011;40529;52.172;10.548;2022-08-01T14:03:38;3.30;;;1.20;;
53062;SDS011;40529;52.172;10.548;2022-08-01T14:06:04;2.85;;;1.20;;
53062;SDS011;40529;52.172;10.548;2022-08-01T14:08:30;3.28;;;1.40;;
53062;SDS011;40529;52.172;10.548;2022-08-01T14:10:56;3.13;;;1.23;;
53062;SDS011;40529;52.172;10.548;2022-08-01T14:13:23;3.03;;;1.45;;
53062;SDS011;40529;52.172;10.548;2022-08-01T14:15:50;2.55;;;1.23;;
53062;SDS011;40529;52.172;10.548;2022-08-01T14:18:16;2.30;;;1.27;;
53062;SDS011;40529;52.172;10.548;2022-08-01T14:20:42;2.83;;;1.10;;
53062;SDS011;40529;52.172;10.548;2022-08-01T14:23:08;3.28;;;1.38;;
53062;SDS011;40529;52.172;10.548;2022-08-01T14:25:38;3.72;;;1.33;;
53062;SDS011;40529;52.172;10.548;2022-08-01T14:28:04;3.22;;;0.98;;
53062;SDS011;40529;52.172;10.548;2022-08-01T14:30:31;5.85;;;1.42;;
53062;SDS011;40529;52.172;10.548;2022-08-01T14:32:57;3.63;;;1.20;;
53062;SDS011;40529;52.172;10.548;2022-08-01T14:35:23;2.65;;;1.30;;
53062;SDS011;40529;52.172;10.548;2022-08-01T14:37:49;1.90;;;1.10;;
53062;SDS011;40529;52.172;10.548;2022-08-01T14:40:15;1.80;;;1.13;;
53062;SDS011;40529;52.172;10.548;2022-08-01T14:42:41;3.63;;;1.30;;
53062;SDS011;40529;52.172;10.548;2022-08-01T14:45:09;3.45;;;1.65;;
53062;SDS011;40529;52.172;10.548;2022-08-01T14:47:36;2.33;;;1.17;;
53062;SDS011;40529;52.172;10.548;2022-08-01T14:50:03;2.55;;;1.15;;
53062;SDS011;40529;52.172;10.548;2022-08-01T14:52:29;2.67;;;1.35;;
53062;SDS011;40529;52.172;10.548;2022-08-01T14:54:55;2.92;;;1.20;;
53062;SDS011;40529;52.172;10.548;2022-08-01T14:57:21;3.10;;;1.10;;
53062;SDS011;40529;52.172;10.548;2022-08-01T14:59:47;3.67;;;1.50;;
53062;SDS011;40529;52.172;10.548;2022-08-01T15:02:13;1.63;;;1.30;;
53062;SDS011;40529;52.172;10.548;2022-08-01T15:04:42;2.83;;;1.38;;
53062;SDS011;40529;52.172;10.548;2022-08-01T15:07:08;3.33;;;1.35;;
53062;SDS011;40529;52.172;10.548;2022-08-01T15:09:34;3.28;;;1.52;;
53062;SDS011;40529;52.172;10.548;2022-08-01T15:12:00;1.67;;;1.20;;